createdAt,value
2018-05-13T00:01:42.826Z,92.90
2018-05-13T00:04:11.163Z,92.90
2018-05-13T00:06:39.461Z,92.90
2018-05-13T00:09:07.798Z,93.00
2018-05-13T00:11:36.115Z,93.10
2018-05-13T00:14:04.423Z,93.20
2018-05-13T00:16:32.771Z,93.30
2018-05-13T00:19:01.092Z,93.30
2018-05-13T00:21:29.521Z,93.20
2018-05-13T00:23:58.600Z,93.30
2018-05-13T00:26:27.726Z,93.40
2018-05-13T00:28:56.042Z,93.40
2018-05-13T00:31:24.362Z,93.40
2018-05-13T00:33:52.663Z,93.50
2018-05-13T00:36:21.014Z,93.60
2018-05-13T00:38:49.347Z,93.60
2018-05-13T00:41:17.710Z,93.50
2018-05-13T00:43:46.799Z,93.80
2018-05-13T00:46:15.893Z,93.80
2018-05-13T00:48:44.219Z,93.80
2018-05-13T00:51:12.529Z,93.80
2018-05-13T00:53:40.866Z,93.90
2018-05-13T00:56:09.183Z,93.90
2018-05-13T00:58:37.518Z,94.00
2018-05-13T01:01:05.836Z,94.00
2018-05-13T01:03:34.174Z,94.10
2018-05-13T01:06:03.244Z,94.60
2018-05-13T01:08:31.538Z,94.20
2018-05-13T01:10:59.865Z,94.30
2018-05-13T01:13:28.178Z,94.40
2018-05-13T01:15:56.504Z,94.40
2018-05-13T01:18:25.577Z,94.50
2018-05-13T01:20:53.957Z,94.50
2018-05-13T01:23:22.267Z,94.60
2018-05-13T01:25:51.455Z,94.60
2018-05-13T01:28:20.549Z,94.70
2018-05-13T01:30:49.641Z,95.20
2018-05-13T01:33:17.988Z,94.70
2018-05-13T01:35:46.327Z,94.80
2018-05-13T01:38:15.713Z,94.90
2018-05-13T01:40:44.097Z,94.90
2018-05-13T01:43:14.705Z,95.20
2018-05-13T01:45:43.184Z,94.90
2018-05-13T01:48:13.844Z,95.00
2018-05-13T01:50:42.266Z,95.00
2018-05-13T01:53:10.783Z,95.00
2018-05-13T01:55:39.271Z,95.10
2018-05-13T01:58:08.374Z,95.20
2018-05-13T02:00:36.704Z,95.20
2018-05-13T02:03:05.960Z,95.20
2018-05-13T02:05:34.338Z,95.30
2018-05-13T02:08:02.671Z,95.40
2018-05-13T02:10:31.755Z,95.40
2018-05-13T02:13:00.073Z,95.30
2018-05-13T02:15:28.408Z,95.40
2018-05-13T02:17:56.775Z,95.40
2018-05-13T02:20:25.099Z,95.70
2018-05-13T02:22:53.452Z,95.70
2018-05-13T02:25:21.778Z,95.80
2018-05-13T02:27:50.089Z,95.90
2018-05-13T02:30:18.453Z,95.90
2018-05-13T02:32:46.756Z,96.00
2018-05-13T02:35:15.083Z,96.00
2018-05-13T02:37:44.165Z,96.00
2018-05-13T02:40:12.523Z,96.00
2018-05-13T02:42:40.838Z,96.10
2018-05-13T02:45:09.946Z,96.20
2018-05-13T02:47:38.256Z,96.20
2018-05-13T02:50:06.586Z,96.30
2018-05-13T02:52:35.675Z,96.40
2018-05-13T02:55:03.988Z,96.40
2018-05-13T02:57:33.100Z,96.40
2018-05-13T03:00:01.416Z,96.40
2018-05-13T03:02:30.768Z,96.50
2018-05-13T03:04:59.845Z,96.50
2018-05-13T03:07:28.951Z,96.60
2018-05-13T03:09:57.294Z,96.60
2018-05-13T03:12:25.645Z,96.60
2018-05-13T03:14:53.958Z,96.70
2018-05-13T03:17:22.291Z,96.80
2018-05-13T03:19:51.371Z,96.70
2018-05-13T03:22:20.486Z,96.90
2018-05-13T03:24:49.575Z,96.90
2018-05-13T03:27:17.887Z,96.90
2018-05-13T03:29:46.217Z,96.90
2018-05-13T03:32:14.531Z,96.90
2018-05-13T03:34:43.618Z,97.00
2018-05-13T03:37:11.930Z,97.00
2018-05-13T03:39:40.273Z,97.00
2018-05-13T03:42:08.592Z,97.00
2018-05-13T03:44:36.938Z,97.00
2018-05-13T03:47:05.243Z,97.00
2018-05-13T03:49:34.320Z,97.00
2018-05-13T03:52:02.692Z,97.00
2018-05-13T03:54:31.986Z,97.00
2018-05-13T03:57:00.292Z,97.00
2018-05-13T03:59:29.390Z,97.30
2018-05-13T04:01:57.729Z,96.90
2018-05-13T04:04:26.053Z,97.00
2018-05-13T04:06:55.148Z,97.20
2018-05-13T04:09:35.351Z,96.90
2018-05-13T04:12:15.558Z,96.90
2018-05-13T04:14:56.664Z,96.80
2018-05-13T04:17:24.995Z,96.80
2018-05-13T04:19:53.308Z,96.70
2018-05-13T04:22:22.410Z,96.50
2018-05-13T04:24:51.482Z,96.50
2018-05-13T04:27:19.813Z,96.50
2018-05-13T04:29:48.130Z,96.40
2018-05-13T04:32:17.237Z,96.20
2018-05-13T04:34:45.551Z,96.30
2018-05-13T04:37:13.858Z,96.10
2018-05-13T04:39:42.194Z,96.00
2018-05-13T04:42:12.206Z,96.00
2018-05-13T04:44:40.528Z,95.80
2018-05-13T04:47:08.847Z,95.70
2018-05-13T04:49:37.178Z,95.50
2018-05-13T04:52:05.510Z,95.40
2018-05-13T04:54:33.862Z,95.30
2018-05-13T04:57:02.168Z,95.20
2018-05-13T04:59:30.495Z,95.00
2018-05-13T05:01:58.809Z,94.80
2018-05-13T05:04:27.144Z,94.50
2018-05-13T05:06:55.447Z,94.10
2018-05-13T05:09:23.808Z,93.60
2018-05-13T05:11:52.894Z,93.00
2018-05-13T05:14:21.203Z,92.70
2018-05-13T05:16:50.299Z,92.30
2018-05-13T05:19:19.382Z,92.20
2018-05-13T05:21:48.497Z,92.10
2018-05-13T05:24:17.570Z,91.80
2018-05-13T05:26:46.658Z,91.70
2018-05-13T05:29:14.986Z,91.70
2018-05-13T05:31:43.319Z,91.50
2018-05-13T05:34:12.966Z,91.40
2018-05-13T05:36:42.063Z,90.60
2018-05-13T05:39:12.552Z,90.10
2018-05-13T05:41:40.890Z,90.10
2018-05-13T05:44:10.126Z,89.70
2018-05-13T05:46:39.311Z,87.70
2018-05-13T05:49:08.433Z,87.70
2018-05-13T05:51:36.915Z,87.60
2018-05-13T05:54:06.199Z,85.60
2018-05-13T05:56:34.513Z,85.40
2018-05-13T05:59:03.418Z,83.50
2018-05-13T06:01:31.736Z,82.10
2018-05-13T06:04:00.071Z,82.00
2018-05-13T06:06:28.397Z,80.50
2018-05-13T06:08:56.769Z,80.30
2018-05-13T06:11:25.865Z,76.80
2018-05-13T06:13:54.973Z,75.30
2018-05-13T06:16:34.716Z,75.30
2018-05-13T06:19:03.834Z,75.10
2018-05-13T06:21:32.147Z,75.10
2018-05-13T06:24:00.460Z,72.90
2018-05-13T06:26:28.840Z,71.70
2018-05-13T06:28:57.160Z,71.10
2018-05-13T06:31:25.520Z,70.80
2018-05-13T06:33:54.593Z,70.90
2018-05-13T06:36:23.688Z,68.40
2018-05-13T06:38:52.006Z,68.40
2018-05-13T06:41:20.341Z,67.90
2018-05-13T06:43:48.667Z,67.60
2018-05-13T06:46:17.013Z,66.70
2018-05-13T06:48:45.341Z,64.90
2018-05-13T06:51:13.769Z,63.20
2018-05-13T06:53:42.057Z,62.60
2018-05-13T06:56:10.412Z,61.20
2018-05-13T06:58:38.740Z,58.80
2018-05-13T07:01:07.834Z,58.20
2018-05-13T07:03:36.934Z,57.80
2018-05-13T07:06:05.244Z,57.10
2018-05-13T07:08:33.570Z,56.40
2018-05-13T07:11:01.901Z,55.20
2018-05-13T07:13:30.260Z,54.70
2018-05-13T07:15:58.582Z,55.40
2018-05-13T07:18:26.920Z,55.40
2018-05-13T07:20:55.247Z,54.30
2018-05-13T07:23:23.595Z,52.10
2018-05-13T07:25:52.709Z,55.00
2018-05-13T07:28:21.773Z,55.30
2018-05-13T07:30:50.117Z,55.20
2018-05-13T07:33:18.442Z,54.30
2018-05-13T07:35:46.778Z,52.40
2018-05-13T07:38:15.079Z,51.40
2018-05-13T07:40:43.414Z,49.70
2018-05-13T07:43:11.743Z,49.00
2018-05-13T07:45:40.094Z,49.30
2018-05-13T07:48:08.420Z,49.40
2018-05-13T07:50:36.771Z,49.40
2018-05-13T07:53:05.106Z,47.70
2018-05-13T07:55:36.072Z,45.50
2018-05-13T07:58:04.402Z,45.40
2018-05-13T08:00:32.731Z,46.30
2018-05-13T08:03:01.081Z,46.20
2018-05-13T08:05:29.393Z,46.90
2018-05-13T08:07:57.865Z,46.60
2018-05-13T08:10:26.950Z,46.10
2018-05-13T08:12:56.095Z,48.30
2018-05-13T08:15:24.446Z,48.30
2018-05-13T08:17:53.552Z,46.90
2018-05-13T08:20:22.721Z,46.50
2018-05-13T08:22:51.022Z,46.50
2018-05-13T08:25:20.125Z,44.40
2018-05-13T08:27:49.232Z,44.60
2018-05-13T08:30:18.376Z,42.70
2018-05-13T08:32:46.770Z,42.70
2018-05-13T08:35:15.094Z,41.40
2018-05-13T08:37:44.591Z,39.90
2018-05-13T08:40:13.687Z,38.40
2018-05-13T08:42:42.767Z,38.40
2018-05-13T08:45:12.409Z,37.50
2018-05-13T08:47:41.503Z,38.00
2018-05-13T08:50:10.634Z,37.10
2018-05-13T08:52:38.960Z,37.10
2018-05-13T08:55:08.819Z,37.70
2018-05-13T08:57:37.182Z,37.60
2018-05-13T09:00:06.288Z,37.90
2018-05-13T09:02:35.368Z,37.40
2018-05-13T09:05:04.745Z,39.00
2018-05-13T09:07:33.127Z,38.30
2018-05-13T09:10:02.766Z,37.20
2018-05-13T09:12:31.941Z,36.70
2018-05-13T09:15:00.253Z,35.80
2018-05-13T09:17:29.371Z,35.80
2018-05-13T09:19:57.690Z,35.80
2018-05-13T09:22:26.020Z,34.60
2018-05-13T09:24:55.343Z,33.80
2018-05-13T09:27:23.686Z,33.70
2018-05-13T09:29:52.663Z,34.00
2018-05-13T09:32:21.149Z,34.20
2018-05-13T09:34:49.500Z,34.70
2018-05-13T09:37:17.847Z,32.80
2018-05-13T09:39:46.936Z,34.00
2018-05-13T09:42:15.264Z,33.90
2018-05-13T09:44:43.612Z,34.80
2018-05-13T09:47:12.695Z,34.20
2018-05-13T09:49:41.031Z,34.10
2018-05-13T09:52:09.348Z,33.20
2018-05-13T09:54:37.663Z,33.50
2018-05-13T09:57:06.744Z,32.40
2018-05-13T09:59:35.103Z,32.30
2018-05-13T10:02:03.418Z,32.20
2018-05-13T10:04:32.546Z,33.90
2018-05-13T10:07:00.857Z,33.80
2018-05-13T10:09:29.190Z,34.30
2018-05-13T10:11:58.289Z,34.80
2018-05-13T10:14:27.354Z,36.10
2018-05-13T10:16:55.689Z,36.00
2018-05-13T10:19:24.013Z,34.00
2018-05-13T10:21:52.353Z,36.00
2018-05-13T10:24:20.659Z,36.10
2018-05-13T10:26:49.010Z,35.60
2018-05-13T10:29:17.410Z,36.40
2018-05-13T10:31:45.686Z,37.10
2018-05-13T10:34:14.003Z,37.20
2018-05-13T10:36:42.360Z,35.90
2018-05-13T10:39:12.346Z,35.60
2018-05-13T10:41:41.496Z,36.20
2018-05-13T10:46:38.437Z,35.20
2018-05-13T10:49:06.770Z,35.30
2018-05-13T10:51:35.076Z,34.50
2018-05-13T10:54:03.396Z,33.70
2018-05-13T10:56:31.694Z,33.30
2018-05-13T10:59:00.098Z,34.10
2018-05-13T11:01:28.420Z,33.60
2018-05-13T11:03:56.743Z,34.90
2018-05-13T11:06:25.067Z,34.60
2018-05-13T11:08:53.442Z,33.90
2018-05-13T11:11:22.549Z,35.90
2018-05-13T11:13:51.640Z,35.40
2018-05-13T11:16:20.766Z,35.30
2018-05-13T11:18:49.079Z,35.30
2018-05-13T11:21:17.402Z,34.30
2018-05-13T11:23:46.559Z,32.30
2018-05-13T11:26:14.988Z,32.20
2018-05-13T11:28:44.094Z,31.50
2018-05-13T11:31:13.167Z,31.60
2018-05-13T11:33:41.593Z,31.60
2018-05-13T11:36:09.843Z,32.10
2018-05-13T11:38:38.927Z,32.20
2018-05-13T11:41:08.048Z,34.20
2018-05-13T11:43:36.411Z,33.50
2018-05-13T11:46:05.581Z,33.20
2018-05-13T11:48:33.911Z,32.90
2018-05-13T11:51:02.970Z,33.70
2018-05-13T11:53:31.454Z,33.60
2018-05-13T11:55:59.763Z,32.90
2018-05-13T11:58:28.113Z,33.70
2018-05-13T12:00:56.451Z,32.70
2018-05-13T12:03:24.769Z,32.00
2018-05-13T12:05:53.208Z,33.00
2018-05-13T12:08:22.318Z,32.70
2018-05-13T12:10:50.661Z,32.70
2018-05-13T12:13:18.964Z,32.90
2018-05-13T12:15:48.548Z,33.50
2018-05-13T12:18:16.882Z,33.50
2018-05-13T12:20:46.769Z,32.40
2018-05-13T12:23:15.233Z,32.80
2018-05-13T12:25:45.301Z,33.10
2018-05-13T12:28:13.782Z,33.50
2018-05-13T12:30:42.122Z,34.00
2018-05-13T12:33:11.502Z,32.90
2018-05-13T12:35:39.823Z,32.00
2018-05-13T12:38:08.930Z,32.70
2018-05-13T12:40:38.689Z,33.00
2018-05-13T12:43:07.022Z,32.90
2018-05-13T12:45:36.098Z,32.60
2018-05-13T12:48:04.433Z,32.60
2018-05-13T12:50:33.022Z,31.60
2018-05-13T12:53:01.939Z,31.40
2018-05-13T12:55:30.248Z,31.60
2018-05-13T12:58:00.076Z,31.80
2018-05-13T13:00:29.214Z,32.60
2018-05-13T13:02:57.549Z,32.60
2018-05-13T13:05:25.861Z,32.50
2018-05-13T13:07:54.189Z,31.60
2018-05-13T13:10:22.506Z,31.80
2018-05-13T13:12:51.695Z,32.20
2018-05-13T13:15:19.975Z,32.20
2018-05-13T13:17:48.323Z,32.00
2018-05-13T13:20:16.655Z,31.80
2018-05-13T13:22:45.713Z,30.40
2018-05-13T13:25:14.067Z,30.40
2018-05-13T13:27:42.419Z,30.00
2018-05-13T13:30:11.509Z,30.90
2018-05-13T13:32:40.592Z,29.20
2018-05-13T13:35:10.412Z,29.50
2018-05-13T13:37:38.736Z,29.40
2018-05-13T13:40:07.154Z,29.90
2018-05-13T13:42:35.525Z,29.70
2018-05-13T13:45:03.873Z,29.10
2018-05-13T13:47:32.179Z,29.10
2018-05-13T13:50:00.507Z,28.90
2018-05-13T13:52:29.604Z,29.10
2018-05-13T13:54:57.928Z,29.10
2018-05-13T13:57:26.267Z,28.90
2018-05-13T13:59:54.618Z,28.40
2018-05-13T14:02:22.972Z,28.90
2018-05-13T14:04:51.293Z,28.30
2018-05-13T14:07:20.445Z,27.80
2018-05-13T14:09:48.756Z,27.80
2018-05-13T14:12:17.114Z,28.10
2018-05-13T14:14:45.419Z,28.10
2018-05-13T14:17:14.510Z,28.20
2018-05-13T14:19:42.861Z,28.20
2018-05-13T14:22:11.173Z,27.80
2018-05-13T14:24:39.528Z,27.80
2018-05-13T14:27:07.852Z,27.20
2018-05-13T14:29:36.171Z,27.10
2018-05-13T14:32:05.261Z,26.30
2018-05-13T14:34:33.619Z,26.30
2018-05-13T14:37:01.925Z,26.20
2018-05-13T14:39:31.064Z,26.10
2018-05-13T14:41:59.398Z,25.80
2018-05-13T14:44:27.709Z,25.90
2018-05-13T14:46:56.051Z,25.80
2018-05-13T14:49:24.372Z,26.00
2018-05-13T14:51:53.487Z,25.00
2018-05-13T14:54:21.829Z,25.00
2018-05-13T14:56:51.897Z,24.60
2018-05-13T14:59:20.207Z,24.60
2018-05-13T15:01:48.547Z,24.20
2018-05-13T15:04:16.882Z,23.80
2018-05-13T15:06:45.226Z,24.00
2018-05-13T15:09:13.550Z,23.00
2018-05-13T15:11:41.897Z,23.30
2018-05-13T15:14:10.212Z,22.90
2018-05-13T15:16:38.571Z,22.80
2018-05-13T15:19:06.880Z,23.50
2018-05-13T15:21:35.183Z,23.40
2018-05-13T15:24:04.280Z,23.10
2018-05-13T15:26:34.618Z,23.10
2018-05-13T15:29:02.972Z,23.10
2018-05-13T15:31:33.374Z,24.10
2018-05-13T15:34:01.714Z,24.00
2018-05-13T15:36:30.915Z,24.80
2018-05-13T15:38:59.396Z,25.70
2018-05-13T15:41:29.363Z,26.80
2018-05-13T15:43:57.691Z,26.80
2018-05-13T15:46:26.444Z,27.30
2018-05-13T15:48:54.766Z,27.80
2018-05-13T15:51:24.147Z,28.60
2018-05-13T15:53:52.463Z,28.90
2018-05-13T15:56:20.778Z,29.70
2018-05-13T15:58:49.127Z,29.30
2018-05-13T16:01:17.549Z,28.90
2018-05-13T16:03:45.866Z,28.80
2018-05-13T16:06:14.970Z,28.70
2018-05-13T16:08:44.038Z,28.80
2018-05-13T16:11:12.775Z,28.80
2018-05-13T16:13:41.069Z,26.80
2018-05-13T16:16:09.363Z,25.80
2018-05-13T16:18:38.318Z,25.30
2018-05-13T16:21:07.387Z,24.60
2018-05-13T16:23:35.715Z,24.60
2018-05-13T16:26:04.046Z,24.20
2018-05-13T16:28:33.183Z,24.90
2018-05-13T16:31:02.261Z,25.30
2018-05-13T16:33:30.658Z,25.30
2018-05-13T16:35:58.936Z,25.90
2018-05-13T16:38:28.089Z,27.70
2018-05-13T16:40:57.132Z,28.30
2018-05-13T16:43:26.275Z,28.80
2018-05-13T16:45:54.663Z,28.30
2018-05-13T16:48:26.885Z,29.10
2018-05-13T16:50:56.108Z,29.60
2018-05-13T16:53:25.896Z,29.60
2018-05-13T16:55:54.931Z,30.00
2018-05-13T16:58:24.469Z,30.00
2018-05-13T17:00:54.393Z,30.10
2018-05-13T17:03:23.345Z,30.80
2018-05-13T17:05:52.654Z,30.50
2018-05-13T17:08:22.910Z,30.10
2018-05-13T17:10:51.268Z,30.00
2018-05-13T17:13:19.600Z,29.80
2018-05-13T17:15:49.119Z,29.90
2018-05-13T17:18:18.232Z,29.80
2018-05-13T17:20:48.148Z,30.00
2018-05-13T17:23:17.264Z,30.00
2018-05-13T17:25:45.588Z,30.00
2018-05-13T17:28:13.910Z,30.00
2018-05-13T17:30:43.003Z,29.90
2018-05-13T17:33:13.015Z,29.60
2018-05-13T17:35:42.099Z,29.40
2018-05-13T17:38:10.424Z,29.40
2018-05-13T17:40:38.760Z,29.80
2018-05-13T17:43:07.875Z,29.80
2018-05-13T17:45:36.941Z,29.70
2018-05-13T17:48:05.281Z,29.70
2018-05-13T17:50:33.875Z,29.90
2018-05-13T17:53:02.214Z,29.80
2018-05-13T17:55:30.547Z,29.70
2018-05-13T17:57:58.880Z,30.00
2018-05-13T18:00:28.731Z,30.50
2018-05-13T18:02:57.161Z,30.50
2018-05-13T18:05:26.206Z,30.90
2018-05-13T18:07:54.522Z,30.90
2018-05-13T18:10:22.844Z,31.30
2018-05-13T18:12:51.162Z,31.90
2018-05-13T18:15:19.502Z,32.20
2018-05-13T18:17:48.576Z,32.60
2018-05-13T18:20:17.060Z,32.60
2018-05-13T18:22:45.753Z,32.60
2018-05-13T18:25:15.050Z,32.80
2018-05-13T18:27:43.544Z,32.70
2018-05-13T18:30:12.026Z,32.90
2018-05-13T18:32:40.640Z,33.20
2018-05-13T18:35:10.321Z,33.70
2018-05-13T18:37:39.507Z,33.90
2018-05-13T18:40:07.882Z,33.90
2018-05-13T18:42:36.312Z,33.90
2018-05-13T18:45:04.886Z,34.20
2018-05-13T18:47:34.596Z,34.80
2018-05-13T18:50:03.286Z,34.70
2018-05-13T18:52:32.829Z,36.20
2018-05-13T18:55:01.666Z,35.40
2018-05-13T18:57:30.165Z,35.80
2018-05-13T18:59:58.759Z,35.90
2018-05-13T19:02:27.423Z,36.20
2018-05-13T19:04:56.031Z,36.60
2018-05-13T19:07:25.209Z,36.90
2018-05-13T19:09:53.650Z,37.20
2018-05-13T19:12:23.945Z,38.20
2018-05-13T19:14:52.310Z,38.00
2018-05-13T19:17:22.113Z,38.30
2018-05-13T19:19:50.856Z,38.50
2018-05-13T19:22:19.621Z,38.60
2018-05-13T19:24:48.336Z,39.00
2018-05-13T19:27:17.423Z,39.10
2018-05-13T19:29:46.000Z,39.40
2018-05-13T19:32:15.103Z,39.70
2018-05-13T19:34:43.681Z,39.90
2018-05-13T19:37:12.304Z,39.90
2018-05-13T19:39:41.683Z,40.40
2018-05-13T19:42:10.357Z,40.40
2018-05-13T19:44:38.977Z,40.60
2018-05-13T19:47:08.363Z,41.20
2018-05-13T19:49:36.844Z,41.20
2018-05-13T19:52:05.185Z,41.60
2018-05-13T19:54:33.610Z,42.40
2018-05-13T19:57:01.925Z,41.60
2018-05-13T19:59:30.480Z,42.10
2018-05-13T20:01:58.857Z,42.40
2018-05-13T20:04:27.448Z,42.60
2018-05-13T20:06:57.659Z,42.90
2018-05-13T20:09:26.588Z,42.90
2018-05-13T20:11:55.261Z,42.90
2018-05-13T20:14:24.010Z,43.20
2018-05-13T20:16:52.601Z,43.20
2018-05-13T20:19:21.103Z,43.30
2018-05-13T20:21:49.515Z,43.40
2018-05-13T20:24:17.937Z,43.60
2018-05-13T20:26:46.454Z,43.60
2018-05-13T20:29:14.861Z,44.00
2018-05-13T20:31:43.221Z,43.90
2018-05-13T20:34:11.591Z,44.10
2018-05-13T20:36:40.133Z,44.40
2018-05-13T20:39:08.607Z,44.50
2018-05-13T20:41:36.942Z,45.40
2018-05-13T20:44:05.264Z,45.00
2018-05-13T20:46:33.596Z,45.30
2018-05-13T20:49:01.921Z,45.40
2018-05-13T20:51:30.281Z,45.60
2018-05-13T20:53:58.578Z,46.00
2018-05-13T20:56:26.949Z,45.90
2018-05-13T20:58:55.272Z,46.00
2018-05-13T21:01:23.594Z,46.30
2018-05-13T21:03:51.944Z,46.50
2018-05-13T21:06:20.248Z,46.60
2018-05-13T21:08:48.593Z,46.80
2018-05-13T21:11:16.906Z,46.60
2018-05-13T21:13:46.029Z,46.80
2018-05-13T21:16:14.333Z,46.80
2018-05-13T21:18:42.703Z,47.20
2018-05-13T21:21:12.372Z,47.20
2018-05-13T21:23:41.472Z,47.50
2018-05-13T21:26:10.579Z,47.30
2018-05-13T21:28:38.892Z,47.30
2018-05-13T21:31:07.217Z,47.50
2018-05-13T21:33:35.576Z,47.50
2018-05-13T21:36:03.949Z,47.50
2018-05-13T21:38:32.263Z,47.60
2018-05-13T21:41:00.600Z,47.90
2018-05-13T21:43:29.164Z,48.10
2018-05-13T21:45:57.486Z,48.10
2018-05-13T21:48:25.840Z,48.40
2018-05-13T21:50:54.181Z,48.60
2018-05-13T21:53:22.501Z,48.80
2018-05-13T21:55:50.821Z,49.10
2018-05-13T21:58:19.162Z,49.40
2018-05-13T22:00:47.494Z,49.40
2018-05-13T22:03:16.620Z,49.70
2018-05-13T22:05:44.938Z,49.80
2018-05-13T22:08:13.282Z,49.80
2018-05-13T22:10:42.351Z,50.30
2018-05-13T22:13:11.427Z,50.30
2018-05-13T22:15:39.738Z,50.30
2018-05-13T22:18:09.342Z,50.70
2018-05-13T22:20:38.610Z,51.00
2018-05-13T22:23:07.806Z,50.90
2018-05-13T22:25:37.230Z,51.10
2018-05-13T22:28:05.709Z,51.60
2018-05-13T22:30:34.019Z,51.90
2018-05-13T22:33:02.872Z,52.00
2018-05-13T22:35:31.181Z,52.00
2018-05-13T22:37:59.487Z,52.40
2018-05-13T22:40:27.911Z,52.70
2018-05-13T22:42:56.214Z,52.40
2018-05-13T22:45:24.533Z,52.80
2018-05-13T22:47:53.634Z,53.10
2018-05-13T22:50:22.743Z,53.70
2018-05-13T22:52:51.846Z,53.10
2018-05-13T22:55:20.917Z,53.20
2018-05-13T22:57:49.251Z,53.30
2018-05-13T23:00:17.597Z,53.40
2018-05-13T23:02:46.689Z,53.70
2018-05-13T23:05:14.996Z,53.70
2018-05-13T23:07:43.337Z,54.40
2018-05-13T23:10:11.662Z,54.00
2018-05-13T23:12:39.983Z,54.60
2018-05-13T23:15:08.330Z,54.10
2018-05-13T23:17:36.667Z,54.10
2018-05-13T23:20:05.604Z,54.60
2018-05-13T23:22:35.307Z,54.90
2018-05-13T23:25:03.645Z,55.00
2018-05-13T23:27:31.995Z,55.00
2018-05-13T23:30:00.326Z,55.00
2018-05-13T23:32:29.397Z,55.50
2018-05-13T23:34:57.742Z,55.50
2018-05-13T23:37:26.054Z,55.60
2018-05-13T23:39:54.398Z,55.80
2018-05-13T23:42:22.697Z,56.00
2018-05-13T23:44:51.022Z,56.10
2018-05-13T23:47:19.328Z,56.40
2018-05-13T23:49:48.440Z,56.60
2018-05-13T23:52:16.766Z,56.60
2018-05-13T23:54:45.062Z,56.60
2018-05-13T23:57:13.422Z,56.70
2018-05-13T23:59:41.726Z,56.70
